Time;durP1;ratioP1;P1;durP2;ratioP2;P2;SDS_P1;SDS_P2;PMS_P1;PMS_P2;Temp;Humidity;BMP_temperature;BMP_pressure;BME280_temperature;BME280_humidity;BME280_pressure;Samples;Min_cycle;Max_cycle;Signal;HPM_P1;HPM_P2
2021/07/29 00:02:04;;;;;;;2.05;1.02;;;;;21.80;100676.00;;;;5070108;28;20214;-77
2021/07/29 00:04:31;;;;;;;5.65;1.10;;;;;21.80;100682.00;;;;5083562;28;20230;-77
2021/07/29 00:06:58;;;;;;;2.95;1.10;;;;;21.80;100676.00;;;;5068666;28;20195;-78
2021/07/29 00:09:25;;;;;;;2.90;0.98;;;;;21.70;100675.00;;;;5076455;28;20202;-78
2021/07/29 00:11:53;;;;;;;1.70;0.90;;;;;21.70;100678.00;;;;5087166;28;20198;-77
2021/07/29 00:14:20;;;;;;;3.35;1.27;;;;;21.70;100675.00;;;;5085140;28;20206;-77
2021/07/29 00:16:50;;;;;;;1.92;0.90;;;;;21.70;100677.00;;;;5069981;28;20551;-77
2021/07/29 00:19:18;;;;;;;1.90;0.88;;;;;21.70;100682.00;;;;5074867;28;20198;-75
2021/07/29 00:21:45;;;;;;;2.88;1.00;;;;;21.70;100692.00;;;;5087640;28;20251;-75
2021/07/29 00:24:13;;;;;;;3.10;1.13;;;;;21.70;100679.00;;;;5091273;28;20775;-75
2021/07/29 00:26:40;;;;;;;3.33;1.00;;;;;21.60;100680.00;;;;5068386;28;20205;-75
2021/07/29 00:29:08;;;;;;;5.05;0.90;;;;;21.60;100684.00;;;;5067858;28;20248;-75
2021/07/29 00:31:36;;;;;;;1.65;0.80;;;;;21.60;100681.00;;;;5070052;28;20617;-75
2021/07/29 00:34:04;;;;;;;3.45;1.10;;;;;21.60;100685.00;;;;5070468;28;20205;-75
2021/07/29 00:36:32;;;;;;;4.07;1.35;;;;;21.60;100681.00;;;;5078825;28;20222;-75
2021/07/29 00:39:00;;;;;;;2.97;1.15;;;;;21.60;100677.00;;;;5088332;28;20213;-76
2021/07/29 00:41:27;;;;;;;5.43;1.00;;;;;21.60;100672.00;;;;5077782;28;20224;-75
2021/07/29 00:44:02;;;;;;;3.58;0.85;;;;;21.50;100677.00;;;;5087745;28;20221;-75
2021/07/29 00:46:31;;;;;;;3.08;1.10;;;;;21.60;100668.00;;;;5068099;28;21034;-75
2021/07/29 00:48:58;;;;;;;2.47;1.02;;;;;21.60;100669.00;;;;5085037;28;20217;-76
2021/07/29 00:51:26;;;;;;;3.13;1.48;;;;;21.60;100669.00;;;;5069903;28;20233;-76
2021/07/29 00:53:56;;;;;;;2.03;0.80;;;;;21.60;100668.00;;;;5081192;28;20278;-75
2021/07/29 00:56:23;;;;;;;4.28;1.13;;;;;21.60;100673.00;;;;5070534;28;20199;-76
2021/07/29 00:58:50;;;;;;;2.10;0.80;;;;;21.60;100669.00;;;;5084491;28;20209;-76
2021/07/29 01:01:17;;;;;;;2.83;1.00;;;;;21.60;100667.00;;;;5084821;28;20198;-77
2021/07/29 01:03:45;;;;;;;2.03;0.90;;;;;21.70;100659.00;;;;5069005;28;20222;-76
2021/07/29 01:06:12;;;;;;;2.13;1.23;;;;;21.70;100670.00;;;;5067950;28;20203;-76
2021/07/29 01:09:08;;;;;;;3.75;1.00;;;;;21.50;100671.00;;;;5068697;28;20268;-76
2021/07/29 01:11:35;;;;;;;5.53;0.90;;;;;21.60;100671.00;;;;5068607;28;20261;-76
2021/07/29 01:14:03;;;;;;;1.85;0.90;;;;;21.70;100671.00;;;;5067706;28;20250;-76
2021/07/29 01:16:30;;;;;;;4.68;1.10;;;;;21.60;100662.00;;;;5069586;28;20772;-76
2021/07/29 01:18:59;;;;;;;2.20;1.10;;;;;21.60;100666.00;;;;5069965;28;20191;-75
2021/07/29 01:21:28;;;;;;;2.28;1.15;;;;;21.60;100659.00;;;;5068461;28;20207;-76
2021/07/29 01:23:56;;;;;;;1.73;0.88;;;;;21.60;100655.00;;;;5079685;28;20249;-76
2021/07/29 01:26:23;;;;;;;3.13;0.95;;;;;21.60;100664.00;;;;5071828;28;20203;-76
2021/07/29 01:28:51;;;;;;;2.80;1.08;;;;;21.60;100666.00;;;;5067865;28;20198;-76
2021/07/29 01:31:18;;;;;;;2.28;0.77;;;;;21.60;100664.00;;;;5074093;28;20577;-76
2021/07/29 01:33:45;;;;;;;1.63;0.77;;;;;21.60;100672.00;;;;5073017;28;20198;-77
2021/07/29 01:36:13;;;;;;;4.13;1.00;;;;;21.50;100667.00;;;;5086020;28;20230;-76
2021/07/29 01:38:41;;;;;;;3.38;1.10;;;;;21.50;100659.00;;;;5088447;28;20202;-77
2021/07/29 01:41:09;;;;;;;2.70;1.05;;;;;21.50;100665.00;;;;5080275;28;20199;-77
2021/07/29 01:43:36;;;;;;;2.33;0.70;;;;;21.50;100670.00;;;;5071126;28;20222;-76
2021/07/29 01:46:03;;;;;;;1.10;0.80;;;;;21.50;100671.00;;;;5074953;28;20202;-76
2021/07/29 01:48:34;;;;;;;4.05;1.10;;;;;21.40;100670.00;;;;5091675;28;20198;-77
2021/07/29 01:51:02;;;;;;;2.10;0.90;;;;;21.40;100672.00;;;;5087730;28;20681;-76
2021/07/29 01:53:29;;;;;;;3.05;1.10;;;;;21.40;100673.00;;;;5090450;28;20198;-77
2021/07/29 01:55:58;;;;;;;2.90;1.00;;;;;21.40;100667.00;;;;5086289;28;20199;-76
2021/07/29 01:58:25;;;;;;;1.67;0.63;;;;;21.40;100665.00;;;;5078523;28;20198;-77
2021/07/29 02:00:53;;;;;;;2.17;1.17;;;;;21.40;100658.00;;;;5078895;28;20680;-77
2021/07/29 02:03:20;;;;;;;3.88;1.02;;;;;21.40;100659.00;;;;5081529;28;20221;-77
2021/07/29 02:05:47;;;;;;;1.40;1.00;;;;;21.30;100658.00;;;;5100740;28;20204;-76
2021/07/29 02:08:14;;;;;;;3.83;1.25;;;;;21.30;100662.00;;;;5071569;28;20722;-76
2021/07/29 02:10:42;;;;;;;2.40;1.00;;;;;21.30;100659.00;;;;5072082;28;20614;-76
2021/07/29 02:13:10;;;;;;;7.47;1.60;;;;;21.30;100659.00;;;;5089313;28;20194;-75
2021/07/29 02:15:37;;;;;;;3.20;0.80;;;;;21.30;100661.00;;;;5080957;28;20201;-76
2021/07/29 02:18:05;;;;;;;5.07;1.30;;;;;21.30;100668.00;;;;5073525;28;20210;-75
2021/07/29 02:20:32;;;;;;;4.47;1.15;;;;;21.30;100672.00;;;;5070252;28;20695;-75
2021/07/29 02:22:59;;;;;;;2.15;0.93;;;;;21.30;100674.00;;;;5078854;28;20205;-76
2021/07/29 02:25:27;;;;;;;3.97;0.98;;;;;21.30;100673.00;;;;5091254;28;20754;-76
2021/07/29 02:27:54;;;;;;;3.13;1.10;;;;;21.30;100673.00;;;;5087887;28;20198;-76
2021/07/29 02:30:22;;;;;;;8.45;1.30;;;;;21.30;100682.00;;;;5087294;28;20216;-77
2021/07/29 02:32:51;;;;;;;3.20;1.38;;;;;21.30;100689.00;;;;5071140;28;20199;-75
2021/07/29 02:35:19;;;;;;;3.40;1.20;;;;;21.20;100691.00;;;;5076835;28;20198;-76
2021/07/29 02:37:46;;;;;;;1.95;1.05;;;;;21.30;100699.00;;;;5086020;28;20233;-76
2021/07/29 02:40:14;;;;;;;2.42;1.13;;;;;21.20;100702.00;;;;5077655;28;20202;-76
2021/07/29 02:42:41;;;;;;;2.92;0.95;;;;;21.20;100708.00;;;;5075315;28;20207;-76
2021/07/29 02:45:09;;;;;;;5.10;1.15;;;;;21.20;100711.00;;;;5071213;28;20701;-76
2021/07/29 02:47:37;;;;;;;2.75;1.00;;;;;21.20;100721.00;;;;5070430;28;20301;-76
2021/07/29 02:50:06;;;;;;;4.90;1.25;;;;;21.20;100719.00;;;;5085498;28;20206;-76
2021/07/29 02:52:33;;;;;;;3.53;1.20;;;;;21.20;100734.00;;;;5072333;28;20621;-77
2021/07/29 02:55:00;;;;;;;3.33;0.65;;;;;21.10;100711.00;;;;5086234;28;20198;-76
2021/07/29 02:57:27;;;;;;;2.72;0.93;;;;;21.10;100697.00;;;;5069651;28;20206;-77
2021/07/29 02:59:56;;;;;;;2.50;0.70;;;;;21.00;100709.00;;;;5069625;28;20201;-77
2021/07/29 03:02:23;;;;;;;3.55;1.10;;;;;21.00;100707.00;;;;5075828;28;20754;-76
2021/07/29 03:04:52;;;;;;;3.83;0.77;;;;;21.00;100702.00;;;;5071123;28;20222;-76
2021/07/29 03:07:19;;;;;;;1.17;0.73;;;;;20.90;100710.00;;;;5071350;28;20195;-77
2021/07/29 03:09:46;;;;;;;1.55;0.73;;;;;20.90;100710.00;;;;5070257;28;20690;-77
2021/07/29 03:12:13;;;;;;;2.28;0.98;;;;;20.90;100711.00;;;;5083493;28;20231;-77
2021/07/29 03:14:41;;;;;;;2.35;0.70;;;;;20.90;100709.00;;;;5073594;28;20202;-77
2021/07/29 03:17:08;;;;;;;3.92;1.33;;;;;20.90;100717.00;;;;5090082;28;20280;-76
2021/07/29 03:19:35;;;;;;;5.65;1.20;;;;;20.90;100719.00;;;;5090105;28;20710;-77
2021/07/29 03:22:04;;;;;;;4.00;1.30;;;;;20.80;100704.00;;;;5075077;28;20198;-76
2021/07/29 03:24:32;;;;;;;3.83;1.00;;;;;20.80;100718.00;;;;5081505;28;20304;-76
2021/07/29 03:26:59;;;;;;;4.82;1.20;;;;;20.80;100712.00;;;;5072103;28;20256;-76
2021/07/29 03:29:27;;;;;;;2.05;1.20;;;;;20.80;100720.00;;;;5072571;28;20548;-77
2021/07/29 03:31:54;;;;;;;4.95;1.10;;;;;20.80;100709.00;;;;5070422;28;20272;-76
2021/07/29 03:34:22;;;;;;;6.07;1.40;;;;;20.80;100712.00;;;;5069389;28;20199;-76
2021/07/29 03:36:49;;;;;;;4.72;1.15;;;;;20.80;100709.00;;;;5073074;28;20222;-76
2021/07/29 03:39:17;;;;;;;2.10;0.85;;;;;20.80;100706.00;;;;5069848;28;20195;-77
2021/07/29 03:41:45;;;;;;;2.70;1.08;;;;;20.80;100713.00;;;;5080145;28;20198;-75
2021/07/29 03:44:12;;;;;;;1.80;1.02;;;;;20.80;100708.00;;;;5086134;28;20737;-76
2021/07/29 03:46:39;;;;;;;2.85;1.05;;;;;20.80;100709.00;;;;5080002;28;20244;-77
2021/07/29 03:49:06;;;;;;;4.32;1.60;;;;;20.80;100714.00;;;;5077665;28;20187;-76
2021/07/29 03:51:33;;;;;;;2.33;1.15;;;;;20.80;100708.00;;;;5069058;28;20888;-77
2021/07/29 03:54:01;;;;;;;4.00;1.23;;;;;20.80;100709.00;;;;5067542;28;20202;-76
2021/07/29 03:56:29;;;;;;;2.67;1.30;;;;;20.80;100712.00;;;;5074324;28;20201;-76
2021/07/29 03:58:56;;;;;;;3.42;1.13;;;;;20.80;100714.00;;;;5072824;28;20198;-77
2021/07/29 04:01:23;;;;;;;2.50;1.08;;;;;20.80;100716.00;;;;5068210;28;20197;-77
2021/07/29 04:03:51;;;;;;;2.38;0.77;;;;;20.80;100713.00;;;;5067127;28;20215;-77
2021/07/29 04:06:18;;;;;;;1.95;0.82;;;;;20.80;100716.00;;;;5068496;28;20203;-76
2021/07/29 04:08:45;;;;;;;3.80;1.10;;;;;20.80;100717.00;;;;5067842;28;20569;-77
2021/07/29 04:11:12;;;;;;;1.75;0.80;;;;;20.80;100719.00;;;;5074374;28;20190;-76
2021/07/29 04:13:41;;;;;;;4.10;1.15;;;;;20.80;100729.00;;;;5087452;28;20206;-76
2021/07/29 04:16:08;;;;;;;1.98;0.98;;;;;20.80;100734.00;;;;5068882;28;20218;-77
2021/07/29 04:18:37;;;;;;;1.38;0.85;;;;;20.80;100726.00;;;;5080432;28;20234;-77
2021/07/29 04:21:04;;;;;;;3.50;1.02;;;;;20.80;100723.00;;;;5068722;28;20218;-78
2021/07/29 04:23:31;;;;;;;2.38;0.90;;;;;20.80;100729.00;;;;5068170;28;20223;-78
2021/07/29 04:25:58;;;;;;;1.27;0.75;;;;;20.70;100722.00;;;;5070761;28;20202;-78
2021/07/29 04:28:26;;;;;;;2.92;1.15;;;;;20.70;100727.00;;;;5086585;28;20194;-77
2021/07/29 04:30:54;;;;;;;1.00;0.80;;;;;20.70;100725.00;;;;5069879;28;20209;-77
2021/07/29 04:33:21;;;;;;;3.15;1.10;;;;;20.70;100722.00;;;;5068427;28;20198;-77
2021/07/29 04:35:48;;;;;;;1.35;0.73;;;;;20.70;100727.00;;;;5083652;28;20601;-77
2021/07/29 04:38:16;;;;;;;0.90;0.77;;;;;20.60;100730.00;;;;5068512;28;20206;-77
2021/07/29 04:40:43;;;;;;;3.22;1.15;;;;;20.60;100729.00;;;;5073655;28;20190;-77
2021/07/29 04:43:10;;;;;;;2.33;1.08;;;;;20.60;100730.00;;;;5088390;28;20359;-77
2021/07/29 04:45:37;;;;;;;3.13;1.10;;;;;20.60;100729.00;;;;5076544;28;20230;-77
2021/07/29 04:48:06;;;;;;;6.57;0.82;;;;;20.60;100726.00;;;;5083643;28;20209;-77
2021/07/29 04:50:34;;;;;;;4.63;1.83;;;;;20.60;100735.00;;;;5079470;28;20225;-77
2021/07/29 04:53:01;;;;;;;1.88;1.10;;;;;20.60;100733.00;;;;5080352;28;20198;-77
2021/07/29 04:55:28;;;;;;;2.65;1.13;;;;;20.60;100731.00;;;;5067802;28;20710;-77
2021/07/29 04:57:55;;;;;;;2.63;1.20;;;;;20.60;100735.00;;;;5068760;28;20191;-77
2021/07/29 05:00:22;;;;;;;3.22;1.35;;;;;20.60;100727.00;;;;5071885;28;20198;-77
2021/07/29 05:02:53;;;;;;;2.67;0.90;;;;;20.60;100730.00;;;;5075995;28;20597;-77
2021/07/29 05:05:22;;;;;;;4.75;1.60;;;;;20.60;100735.00;;;;5085176;28;20225;-78
2021/07/29 05:07:51;;;;;;;4.88;1.13;;;;;20.60;100735.00;;;;5084457;28;20194;-77
2021/07/29 05:10:19;;;;;;;3.45;1.08;;;;;20.60;100730.00;;;;5075950;28;20222;-77
2021/07/29 05:12:46;;;;;;;3.97;1.35;;;;;20.70;100731.00;;;;5071395;28;20199;-77
2021/07/29 05:15:13;;;;;;;4.65;1.50;;;;;20.70;100733.00;;;;5071725;28;20578;-77
2021/07/29 05:17:40;;;;;;;3.92;1.50;;;;;20.70;100736.00;;;;5097322;28;20197;-77
2021/07/29 05:20:10;;;;;;;5.20;0.95;;;;;20.70;100728.00;;;;5090728;28;20229;-77
2021/07/29 05:22:38;;;;;;;5.72;1.35;;;;;20.70;100722.00;;;;5080467;28;20191;-76
2021/07/29 05:25:06;;;;;;;3.45;1.17;;;;;20.80;100728.00;;;;5080317;28;20229;-78
2021/07/29 05:27:33;;;;;;;7.03;1.55;;;;;20.80;100735.00;;;;5076152;28;20198;-78
2021/07/29 05:30:00;;;;;;;4.28;1.52;;;;;20.80;100725.00;;;;5092226;28;20293;-80
2021/07/29 05:32:28;;;;;;;4.25;1.52;;;;;20.80;100741.00;;;;5075087;28;20214;-78
2021/07/29 05:34:55;;;;;;;2.05;1.55;;;;;20.80;100738.00;;;;5071554;28;20218;-76
2021/07/29 05:37:22;;;;;;;3.20;1.05;;;;;20.90;100731.00;;;;5076599;28;20223;-77
2021/07/29 05:39:51;;;;;;;4.18;1.58;;;;;20.90;100737.00;;;;5081603;28;20199;-77
2021/07/29 05:42:23;;;;;;;3.75;1.08;;;;;20.90;100739.00;;;;5092296;28;20194;-77
2021/07/29 05:44:51;;;;;;;2.28;0.93;;;;;20.90;100743.00;;;;5079123;28;20223;-78
2021/07/29 05:47:20;;;;;;;2.78;1.02;;;;;21.00;100737.00;;;;5088574;28;20206;-77
2021/07/29 05:49:47;;;;;;;4.28;1.40;;;;;21.00;100744.00;;;;5094679;28;20194;-77
2021/07/29 05:52:14;;;;;;;5.32;1.23;;;;;21.10;100740.00;;;;5090276;28;20198;-78
2021/07/29 05:54:41;;;;;;;3.58;1.58;;;;;21.10;100751.00;;;;5071174;28;20230;-77
2021/07/29 05:57:10;;;;;;;4.72;1.42;;;;;21.10;100752.00;;;;5071665;28;20195;-78
2021/07/29 05:59:37;;;;;;;6.15;1.52;;;;;21.20;100749.00;;;;5073743;28;20203;-78
2021/07/29 06:02:05;;;;;;;3.38;1.15;;;;;21.20;100755.00;;;;5084641;28;20198;-76
2021/07/29 06:04:32;;;;;;;5.75;1.25;;;;;21.30;100756.00;;;;5090873;28;20231;-79
2021/07/29 06:07:00;;;;;;;7.80;1.50;;;;;21.30;100758.00;;;;5091314;28;20206;-79
2021/07/29 06:09:27;;;;;;;4.07;1.52;;;;;21.40;100749.00;;;;5090823;28;20396;-78
2021/07/29 06:11:54;;;;;;;4.75;1.65;;;;;21.40;100747.00;;;;5091488;28;20668;-78
2021/07/29 06:14:23;;;;;;;3.33;1.30;;;;;21.50;100756.00;;;;5089030;28;20217;-79
2021/07/29 06:16:50;;;;;;;6.10;1.90;;;;;21.50;100759.00;;;;5091032;28;20202;-78
2021/07/29 06:19:18;;;;;;;5.03;1.63;;;;;21.60;100761.00;;;;5090773;28;21005;-78
2021/07/29 06:21:46;;;;;;;5.10;1.70;;;;;21.60;100758.00;;;;5091079;28;20245;-79
2021/07/29 06:24:13;;;;;;;4.47;1.33;;;;;21.60;100766.00;;;;5090684;28;20310;-78
2021/07/29 06:26:40;;;;;;;4.75;1.77;;;;;21.60;100769.00;;;;5091041;28;20190;-77
2021/07/29 06:29:08;;;;;;;3.38;1.55;;;;;21.70;100764.00;;;;5091102;28;20193;-78
2021/07/29 06:31:36;;;;;;;5.53;1.80;;;;;21.70;100769.00;;;;5071558;28;20206;-79
2021/07/29 06:34:03;;;;;;;3.53;1.30;;;;;21.70;100776.00;;;;5070871;28;20542;-79
2021/07/29 06:36:30;;;;;;;3.03;1.52;;;;;21.70;100777.00;;;;5069929;28;20230;-77
2021/07/29 06:38:59;;;;;;;5.20;1.73;;;;;21.80;100774.00;;;;5079633;28;20687;-79
2021/07/29 06:41:26;;;;;;;5.50;1.60;;;;;21.80;100786.00;;;;5091113;28;20208;-79
2021/07/29 06:43:54;;;;;;;6.25;1.60;;;;;21.90;100791.00;;;;5090332;28;20198;-78
2021/07/29 06:46:21;;;;;;;4.85;1.80;;;;;21.90;100790.00;;;;5089659;28;20229;-78
2021/07/29 06:48:50;;;;;;;5.03;2.22;;;;;21.90;100784.00;;;;5070446;28;20236;-78
2021/07/29 06:51:17;;;;;;;4.95;1.60;;;;;21.90;100790.00;;;;5070035;28;20207;-78
2021/07/29 06:53:44;;;;;;;5.20;1.40;;;;;22.00;100799.00;;;;5070690;28;20209;-78
2021/07/29 06:56:12;;;;;;;5.65;1.70;;;;;22.00;100792.00;;;;5070118;28;20665;-78
2021/07/29 06:58:39;;;;;;;5.07;1.88;;;;;22.10;100797.00;;;;5093275;28;20202;-76
2021/07/29 07:01:07;;;;;;;4.45;1.33;;;;;22.10;100800.00;;;;5071650;28;20195;-77
2021/07/29 07:03:34;;;;;;;7.45;1.80;;;;;22.20;100799.00;;;;5087946;28;20195;-76
2021/07/29 07:06:03;;;;;;;6.18;1.77;;;;;22.20;100792.00;;;;5090959;28;20210;-77
2021/07/29 07:08:31;;;;;;;6.13;1.80;;;;;22.30;100813.00;;;;5084745;28;20198;-76
2021/07/29 07:10:58;;;;;;;4.55;1.38;;;;;22.30;100814.00;;;;5067432;28;20202;-76
2021/07/29 07:13:25;;;;;;;9.35;1.90;;;;;22.40;100804.00;;;;5086559;28;20209;-78
2021/07/29 07:15:53;;;;;;;5.50;1.63;;;;;22.40;100807.00;;;;5086255;28;20190;-76
2021/07/29 07:18:21;;;;;;;6.75;2.03;;;;;22.40;100810.00;;;;5069912;28;20199;-77
2021/07/29 07:20:49;;;;;;;12.18;1.75;;;;;22.40;100823.00;;;;5079510;28;20206;-77
2021/07/29 07:23:17;;;;;;;4.90;1.63;;;;;22.50;100823.00;;;;5089832;28;20599;-77
2021/07/29 07:25:45;;;;;;;6.05;1.38;;;;;22.50;100823.00;;;;5068361;28;20226;-77
2021/07/29 07:28:12;;;;;;;6.35;1.42;;;;;22.50;100816.00;;;;5068978;28;20199;-76
2021/07/29 07:30:40;;;;;;;3.75;1.40;;;;;22.60;100815.00;;;;5075437;28;20203;-77
2021/07/29 07:33:08;;;;;;;3.00;1.48;;;;;22.70;100817.00;;;;5069525;28;20226;-76
2021/07/29 07:35:35;;;;;;;6.20;1.58;;;;;22.70;100815.00;;;;5081319;28;20190;-77
2021/07/29 07:38:02;;;;;;;4.38;1.25;;;;;22.80;100821.00;;;;5085838;28;20194;-76
2021/07/29 07:40:31;;;;;;;4.25;1.42;;;;;22.80;100820.00;;;;5078776;28;20213;-76
2021/07/29 07:42:58;;;;;;;5.50;1.25;;;;;22.80;100813.00;;;;5068528;28;20201;-76
2021/07/29 07:45:26;;;;;;;4.05;1.50;;;;;22.80;100826.00;;;;5068181;28;20246;-76
2021/07/29 07:47:53;;;;;;;3.00;1.25;;;;;22.90;100833.00;;;;5068654;28;20203;-77
2021/07/29 07:50:21;;;;;;;6.65;1.60;;;;;22.90;100822.00;;;;5069003;28;20207;-77
2021/07/29 07:52:48;;;;;;;4.35;1.48;;;;;22.90;100822.00;;;;5068842;28;20293;-76
2021/07/29 07:55:15;;;;;;;3.80;1.50;;;;;23.00;100827.00;;;;5069283;28;20199;-77
2021/07/29 07:57:44;;;;;;;4.25;1.42;;;;;23.10;100831.00;;;;5085464;28;20703;-77
2021/07/29 08:00:12;;;;;;;3.90;1.10;;;;;23.20;100829.00;;;;5075033;28;20214;-77
2021/07/29 08:02:39;;;;;;;3.72;1.17;;;;;23.30;100828.00;;;;5068910;28;20260;-76
2021/07/29 08:05:08;;;;;;;8.05;2.00;;;;;23.40;100832.00;;;;5094051;28;20221;-76
2021/07/29 08:07:35;;;;;;;7.70;2.05;;;;;23.40;100839.00;;;;5070295;28;20207;-77
2021/07/29 08:10:02;;;;;;;3.88;1.25;;;;;23.50;100832.00;;;;5068419;28;20640;-77
2021/07/29 08:12:29;;;;;;;5.90;1.27;;;;;23.50;100830.00;;;;5077298;28;20202;-77
2021/07/29 08:14:58;;;;;;;4.13;1.30;;;;;23.50;100845.00;;;;5076795;28;20266;-77
2021/07/29 08:17:25;;;;;;;5.00;1.13;;;;;23.50;100828.00;;;;5070397;28;20202;-77
2021/07/29 08:19:52;;;;;;;7.22;1.48;;;;;23.60;100837.00;;;;5080197;28;20198;-77
2021/07/29 08:22:19;;;;;;;4.97;1.13;;;;;23.60;100822.00;;;;5068156;28;20199;-77
2021/07/29 08:24:47;;;;;;;2.83;1.40;;;;;23.60;100816.00;;;;5067915;28;20222;-77
2021/07/29 08:27:14;;;;;;;3.88;1.38;;;;;23.70;100845.00;;;;5068215;28;20206;-77
2021/07/29 08:29:41;;;;;;;5.90;1.58;;;;;23.70;100826.00;;;;5083823;28;21185;-78
2021/07/29 08:32:11;;;;;;;5.10;1.65;;;;;23.80;100844.00;;;;5078561;28;20186;-78
2021/07/29 08:34:38;;;;;;;8.93;1.50;;;;;23.80;100844.00;;;;5078159;28;20214;-77
2021/07/29 08:37:05;;;;;;;1.63;1.05;;;;;23.80;100843.00;;;;5067778;28;20244;-77
2021/07/29 08:39:33;;;;;;;7.13;1.38;;;;;23.90;100828.00;;;;5067587;28;20199;-77
2021/07/29 08:42:00;;;;;;;7.07;1.60;;;;;24.00;100833.00;;;;5068275;28;20198;-77
2021/07/29 08:44:27;;;;;;;2.72;1.15;;;;;24.00;100844.00;;;;5068744;28;20226;-78
2021/07/29 08:46:55;;;;;;;4.55;1.70;;;;;24.00;100839.00;;;;5067402;28;20222;-77
2021/07/29 08:49:27;;;;;;;2.40;1.15;;;;;24.00;100852.00;;;;5066681;28;20206;-77
2021/07/29 08:51:54;;;;;;;5.05;1.70;;;;;24.10;100856.00;;;;5074797;28;20348;-76
2021/07/29 08:54:22;;;;;;;5.68;1.40;;;;;24.10;100856.00;;;;5076381;28;20202;-78
2021/07/29 08:56:49;;;;;;;2.35;1.33;;;;;24.20;100854.00;;;;5084537;28;20194;-77
2021/07/29 08:59:16;;;;;;;2.15;1.02;;;;;24.20;100862.00;;;;5075867;28;20206;-77
2021/07/29 09:01:45;;;;;;;3.88;1.55;;;;;24.20;100855.00;;;;5075022;28;20668;-78
2021/07/29 09:04:13;;;;;;;4.20;1.40;;;;;24.20;100867.00;;;;5076918;28;20210;-78
2021/07/29 09:06:58;;;;;;;2.88;1.15;;;;;24.00;100868.00;;;;5079171;28;20233;-77
2021/07/29 09:09:37;;;;;;;5.68;1.23;;;;;24.10;100869.00;;;;5082916;28;20279;-78
2021/07/29 09:12:21;;;;;;;4.00;1.08;;;;;24.10;100869.00;;;;5080470;28;20267;-77
2021/07/29 09:14:49;;;;;;;8.77;1.20;;;;;24.20;100863.00;;;;5071036;28;20199;-79
2021/07/29 09:17:18;;;;;;;6.07;1.42;;;;;24.20;100872.00;;;;5071057;28;20210;-77
2021/07/29 09:19:46;;;;;;;6.25;1.90;;;;;24.20;100870.00;;;;5073890;28;20622;-78
2021/07/29 09:22:17;;;;;;;2.90;1.10;;;;;24.20;100878.00;;;;5070430;28;20191;-78
2021/07/29 09:25:02;;;;;;;2.53;0.93;;;;;24.20;100872.00;;;;5075089;28;20222;-77
2021/07/29 09:27:45;;;;;;;7.85;1.40;;;;;24.40;100880.00;;;;5074553;28;20302;-78
2021/07/29 09:30:15;;;;;;;3.30;1.13;;;;;24.60;100888.00;;;;5071702;28;20198;-77
2021/07/29 09:33:03;;;;;;;1.88;1.00;;;;;24.70;100878.00;;;;5071507;28;20210;-78
2021/07/29 09:35:39;;;;;;;6.47;1.55;;;;;24.90;100885.00;;;;5084404;28;20703;-77
2021/07/29 09:38:10;;;;;;;4.97;1.23;;;;;25.00;100886.00;;;;5080050;28;20190;-78
2021/07/29 09:40:49;;;;;;;4.30;1.00;;;;;25.10;100882.00;;;;5079381;28;20214;-78
2021/07/29 09:43:19;;;;;;;7.47;1.40;;;;;25.20;100877.00;;;;5071432;28;20652;-78
2021/07/29 09:45:48;;;;;;;5.30;1.90;;;;;25.30;100887.00;;;;5078403;28;20226;-78
2021/07/29 09:48:17;;;;;;;4.13;0.98;;;;;25.50;100879.00;;;;5070332;28;20195;-77
2021/07/29 09:50:45;;;;;;;2.50;1.15;;;;;25.60;100871.00;;;;5087641;28;20191;-77
2021/07/29 09:53:14;;;;;;;5.40;1.00;;;;;25.70;100877.00;;;;5075706;28;20195;-78
2021/07/29 09:55:41;;;;;;;2.83;1.05;;;;;25.90;100879.00;;;;5083116;28;20191;-77
2021/07/29 09:58:08;;;;;;;3.40;1.45;;;;;26.00;100889.00;;;;5070332;28;20199;-78
2021/07/29 10:00:38;;;;;;;2.70;1.48;;;;;26.00;100883.00;;;;5071912;28;20214;-78
2021/07/29 10:03:07;;;;;;;9.82;1.58;;;;;26.10;100887.00;;;;5073291;28;20204;-77
2021/07/29 10:05:46;;;;;;;2.78;0.88;;;;;25.90;100891.00;;;;5071406;28;20760;-78
2021/07/29 10:08:22;;;;;;;3.08;0.90;;;;;25.90;100881.00;;;;5081527;28;20205;-77
2021/07/29 10:10:51;;;;;;;2.67;1.08;;;;;26.00;100881.00;;;;5074050;28;20244;-74
2021/07/29 10:13:18;;;;;;;5.57;1.42;;;;;26.00;100883.00;;;;5078918;28;20198;-74
2021/07/29 10:15:47;;;;;;;4.22;1.02;;;;;26.00;100883.00;;;;5070210;28;20202;-76
2021/07/29 10:18:15;;;;;;;4.07;1.08;;;;;26.00;100886.00;;;;5070630;28;20202;-76
2021/07/29 10:20:43;;;;;;;4.93;1.30;;;;;26.00;100899.00;;;;5083744;28;20201;-77
2021/07/29 10:23:35;;;;;;;1.55;1.10;;;;;25.80;100898.00;;;;5079676;28;20218;-76
2021/07/29 10:26:07;;;;;;;2.45;1.20;;;;;25.80;100898.00;;;;5083085;28;20271;-76
2021/07/29 10:28:40;;;;;;;5.35;1.25;;;;;25.70;100903.00;;;;5070797;28;20214;-77
2021/07/29 10:31:09;;;;;;;2.38;1.40;;;;;25.70;100902.00;;;;5070079;28;20195;-76
2021/07/29 10:33:36;;;;;;;5.10;1.05;;;;;25.70;100905.00;;;;5069661;28;20195;-76
2021/07/29 10:36:04;;;;;;;3.38;0.95;;;;;25.60;100914.00;;;;5070910;28;20235;-76
2021/07/29 10:38:48;;;;;;;3.60;1.17;;;;;25.40;100920.00;;;;5095234;28;20524;-76
2021/07/29 10:41:40;;;;;;;2.55;1.20;;;;;25.30;100911.00;;;;5078197;28;20658;-75
2021/07/29 10:44:10;;;;;;;3.50;1.35;;;;;25.40;100911.00;;;;5069281;28;20218;-76
2021/07/29 10:46:59;;;;;;;5.03;1.55;;;;;25.30;100910.00;;;;5081056;28;20715;-75
2021/07/29 10:50:05;;;;;;;4.50;1.40;;;;;25.40;100908.00;;;;5086228;28;20205;-74
2021/07/29 10:52:33;;;;;;;3.80;1.20;;;;;25.60;100914.00;;;;5077481;28;20206;-75
2021/07/29 10:55:02;;;;;;;3.47;1.20;;;;;25.60;100908.00;;;;5068569;28;20994;-76
2021/07/29 10:57:30;;;;;;;4.57;1.75;;;;;25.70;100913.00;;;;5069107;28;20195;-77
2021/07/29 10:59:59;;;;;;;4.80;1.75;;;;;25.60;100914.00;;;;5068988;28;20282;-75
2021/07/29 11:02:43;;;;;;;2.63;1.60;;;;;25.50;100920.00;;;;5070341;28;20286;-76
2021/07/29 11:05:10;;;;;;;4.07;1.60;;;;;25.50;100927.00;;;;5092566;28;20526;-76
2021/07/29 11:07:44;;;;;;;5.25;1.48;;;;;25.40;100933.00;;;;5076791;28;20314;-76
2021/07/29 11:10:17;;;;;;;7.28;1.55;;;;;25.40;100942.00;;;;5069726;28;20203;-74
2021/07/29 11:12:48;;;;;;;2.65;1.48;;;;;25.40;100938.00;;;;5076931;28;20203;-75
2021/07/29 11:15:15;;;;;;;2.75;1.35;;;;;25.40;100936.00;;;;5075570;28;20210;-75
2021/07/29 11:17:43;;;;;;;4.75;1.67;;;;;25.40;100932.00;;;;5075920;28;20758;-76
2021/07/29 11:20:11;;;;;;;5.40;1.45;;;;;25.50;100922.00;;;;5072517;28;20290;-76
2021/07/29 11:22:48;;;;;;;3.72;1.20;;;;;25.40;100930.00;;;;5068850;28;20252;-76
2021/07/29 11:25:18;;;;;;;3.80;1.58;;;;;25.60;100920.00;;;;5068929;28;20210;-76
2021/07/29 11:27:45;;;;;;;4.35;1.67;;;;;25.60;100923.00;;;;5076132;28;20704;-77
2021/07/29 11:30:13;;;;;;;4.20;1.52;;;;;25.70;100922.00;;;;5068689;28;20470;-77
2021/07/29 11:32:42;;;;;;;4.20;1.30;;;;;25.80;100916.00;;;;5073485;28;20231;-77
2021/07/29 11:35:20;;;;;;;5.95;1.83;;;;;25.80;100919.00;;;;5071036;28;20564;-77
2021/07/29 11:37:48;;;;;;;3.03;1.50;;;;;25.80;100927.00;;;;5044765;28;20203;-77
2021/07/29 11:40:20;;;;;;;4.35;1.60;;;;;25.90;100925.00;;;;5052621;28;20757;-76
2021/07/29 11:42:47;;;;;;;4.40;1.50;;;;;25.90;100918.00;;;;5045041;28;20206;-76
2021/07/29 11:45:25;;;;;;;3.92;1.70;;;;;25.90;100918.00;;;;5045018;28;20203;-76
2021/07/29 11:47:53;;;;;;;4.63;1.77;;;;;26.00;100929.00;;;;5044907;28;20206;-77
2021/07/29 11:50:36;;;;;;;8.85;2.08;;;;;26.00;100921.00;;;;5059215;28;20199;-76
2021/07/29 11:53:03;;;;;;;2.65;1.10;;;;;26.10;100927.00;;;;5057596;28;20194;-76
2021/07/29 11:55:30;;;;;;;9.48;1.85;;;;;26.10;100936.00;;;;5046683;28;20203;-75
2021/07/29 11:58:06;;;;;;;5.43;1.60;;;;;26.00;100917.00;;;;5044646;28;20204;-76
2021/07/29 12:00:34;;;;;;;4.82;1.63;;;;;26.10;100922.00;;;;5044620;28;20261;-75
2021/07/29 12:03:01;;;;;;;7.72;1.23;;;;;26.10;100928.00;;;;5045108;28;20622;-76
2021/07/29 12:05:29;;;;;;;2.90;1.20;;;;;26.10;100931.00;;;;5052036;28;20198;-76
2021/07/29 12:07:58;;;;;;;6.80;1.90;;;;;26.20;100925.00;;;;5044704;28;20204;-77
2021/07/29 12:10:28;;;;;;;4.38;1.75;;;;;26.20;100928.00;;;;5046401;28;20566;-75
2021/07/29 12:12:56;;;;;;;5.60;1.55;;;;;26.20;100934.00;;;;5044616;28;20196;-76
2021/07/29 12:15:24;;;;;;;4.47;1.45;;;;;26.20;100928.00;;;;5047232;28;20223;-77
2021/07/29 12:17:52;;;;;;;4.95;1.27;;;;;26.20;100936.00;;;;5044895;28;20196;-76